sensor_id;sensor_type;location;lat;lon;timestamp;P1;durP1;ratioP1;P2;durP2;ratioP2
34639;SDS011;22600;48.186;11.526;2022-08-19T00:01:31;3.97;;;3.22;;
34639;SDS011;22600;48.186;11.526;2022-08-19T00:03:59;3.65;;;2.97;;
34639;SDS011;22600;48.186;11.526;2022-08-19T00:06:27;2.97;;;2.70;;
34639;SDS011;22600;48.186;11.526;2022-08-19T00:08:53;3.60;;;3.20;;
34639;SDS011;22600;48.186;11.526;2022-08-19T00:11:20;3.67;;;3.05;;
34639;SDS011;22600;48.186;11.526;2022-08-19T00:13:46;3.40;;;2.78;;
34639;SDS011;22600;48.186;11.526;2022-08-19T00:16:13;2.75;;;2.55;;
34639;SDS011;22600;48.186;11.526;2022-08-19T00:18:39;3.00;;;2.70;;
34639;SDS011;22600;48.186;11.526;2022-08-19T00:21:05;3.20;;;2.80;;
34639;SDS011;22600;48.186;11.526;2022-08-19T00:23:33;3.13;;;2.78;;
34639;SDS011;22600;48.186;11.526;2022-08-19T00:26:01;2.97;;;2.40;;
34639;SDS011;22600;48.186;11.526;2022-08-19T00:28:28;3.13;;;2.50;;
34639;SDS011;22600;48.186;11.526;2022-08-19T00:30:53;3.60;;;3.10;;
34639;SDS011;22600;48.186;11.526;2022-08-19T00:33:20;2.90;;;2.60;;
34639;SDS011;22600;48.186;11.526;2022-08-19T00:35:46;3.33;;;2.70;;
34639;SDS011;22600;48.186;11.526;2022-08-19T00:38:11;3.58;;;2.78;;
34639;SDS011;22600;48.186;11.526;2022-08-19T00:40:37;2.63;;;2.38;;
34639;SDS011;22600;48.186;11.526;2022-08-19T00:43:07;2.85;;;2.42;;
34639;SDS011;22600;48.186;11.526;2022-08-19T00:45:34;3.63;;;2.70;;
34639;SDS011;22600;48.186;11.526;2022-08-19T00:48:01;4.15;;;2.80;;
34639;SDS011;22600;48.186;11.526;2022-08-19T00:50:29;3.00;;;2.70;;
34639;SDS011;22600;48.186;11.526;2022-08-19T00:52:55;2.90;;;2.60;;
34639;SDS011;22600;48.186;11.526;2022-08-19T00:55:22;2.90;;;2.63;;
34639;SDS011;22600;48.186;11.526;2022-08-19T00:57:54;2.85;;;2.55;;
34639;SDS011;22600;48.186;11.526;2022-08-19T01:00:23;3.45;;;2.72;;
34639;SDS011;22600;48.186;11.526;2022-08-19T01:02:51;3.08;;;2.55;;
34639;SDS011;22600;48.186;11.526;2022-08-19T01:05:18;3.05;;;2.75;;
34639;SDS011;22600;48.186;11.526;2022-08-19T01:07:47;3.13;;;2.80;;
34639;SDS011;22600;48.186;11.526;2022-08-19T01:10:17;3.92;;;2.75;;
34639;SDS011;22600;48.186;11.526;2022-08-19T01:12:46;3.03;;;2.70;;
34639;SDS011;22600;48.186;11.526;2022-08-19T01:15:14;3.40;;;2.60;;
34639;SDS011;22600;48.186;11.526;2022-08-19T01:17:43;3.13;;;2.70;;
34639;SDS011;22600;48.186;11.526;2022-08-19T01:20:11;3.50;;;2.88;;
34639;SDS011;22600;48.186;11.526;2022-08-19T01:22:44;3.22;;;2.90;;
34639;SDS011;22600;48.186;11.526;2022-08-19T01:25:16;3.88;;;3.05;;
34639;SDS011;22600;48.186;11.526;2022-08-19T01:27:44;3.03;;;2.72;;
34639;SDS011;22600;48.186;11.526;2022-08-19T01:30:13;3.47;;;2.95;;
34639;SDS011;22600;48.186;11.526;2022-08-19T01:32:42;3.90;;;3.03;;
34639;SDS011;22600;48.186;11.526;2022-08-19T01:35:08;3.25;;;2.70;;
34639;SDS011;22600;48.186;11.526;2022-08-19T01:38:09;2.83;;;2.53;;
34639;SDS011;22600;48.186;11.526;2022-08-19T01:40:32;3.33;;;2.70;;
34639;SDS011;22600;48.186;11.526;2022-08-19T01:42:59;3.38;;;2.92;;
34639;SDS011;22600;48.186;11.526;2022-08-19T01:45:26;3.67;;;3.05;;
34639;SDS011;22600;48.186;11.526;2022-08-19T01:47:54;3.50;;;3.03;;
34639;SDS011;22600;48.186;11.526;2022-08-19T01:50:21;4.03;;;3.10;;
34639;SDS011;22600;48.186;11.526;2022-08-19T01:52:47;3.75;;;3.35;;
34639;SDS011;22600;48.186;11.526;2022-08-19T01:55:14;4.10;;;3.15;;
34639;SDS011;22600;48.186;11.526;2022-08-19T01:57:42;3.97;;;2.95;;
34639;SDS011;22600;48.186;11.526;2022-08-19T02:00:12;3.90;;;3.30;;
34639;SDS011;22600;48.186;11.526;2022-08-19T02:02:40;4.13;;;3.37;;
34639;SDS011;22600;48.186;11.526;2022-08-19T02:05:06;3.70;;;3.28;;
34639;SDS011;22600;48.186;11.526;2022-08-19T02:07:33;3.38;;;3.03;;
34639;SDS011;22600;48.186;11.526;2022-08-19T02:10:01;3.42;;;3.10;;
34639;SDS011;22600;48.186;11.526;2022-08-19T02:12:30;3.58;;;3.28;;
34639;SDS011;22600;48.186;11.526;2022-08-19T02:14:56;3.70;;;3.28;;
34639;SDS011;22600;48.186;11.526;2022-08-19T02:17:21;3.58;;;3.10;;
34639;SDS011;22600;48.186;11.526;2022-08-19T02:19:47;4.15;;;3.35;;
34639;SDS011;22600;48.186;11.526;2022-08-19T02:22:13;3.40;;;3.10;;
34639;SDS011;22600;48.186;11.526;2022-08-19T02:24:39;4.03;;;3.38;;
34639;SDS011;22600;48.186;11.526;2022-08-19T02:27:05;4.40;;;3.30;;
34639;SDS011;22600;48.186;11.526;2022-08-19T02:29:31;3.83;;;3.42;;
34639;SDS011;22600;48.186;11.526;2022-08-19T02:31:56;3.53;;;2.97;;
34639;SDS011;22600;48.186;11.526;2022-08-19T02:34:23;3.50;;;3.17;;
34639;SDS011;22600;48.186;11.526;2022-08-19T02:36:50;3.30;;;2.92;;
34639;SDS011;22600;48.186;11.526;2022-08-19T02:39:16;4.28;;;3.50;;
34639;SDS011;22600;48.186;11.526;2022-08-19T02:41:42;4.40;;;3.25;;
34639;SDS011;22600;48.186;11.526;2022-08-19T02:44:08;3.45;;;2.90;;
34639;SDS011;22600;48.186;11.526;2022-08-19T02:46:33;3.35;;;3.05;;
34639;SDS011;22600;48.186;11.526;2022-08-19T02:49:02;3.30;;;3.00;;
34639;SDS011;22600;48.186;11.526;2022-08-19T02:51:35;3.47;;;3.10;;
34639;SDS011;22600;48.186;11.526;2022-08-19T02:54:02;3.65;;;2.92;;
34639;SDS011;22600;48.186;11.526;2022-08-19T02:56:29;3.40;;;3.10;;
34639;SDS011;22600;48.186;11.526;2022-08-19T02:58:55;4.03;;;3.22;;
34639;SDS011;22600;48.186;11.526;2022-08-19T03:01:29;3.15;;;2.65;;
34639;SDS011;22600;48.186;11.526;2022-08-19T03:03:56;3.60;;;3.00;;
34639;SDS011;22600;48.186;11.526;2022-08-19T03:06:23;3.40;;;3.10;;
34639;SDS011;22600;48.186;11.526;2022-08-19T03:08:49;4.25;;;3.13;;
34639;SDS011;22600;48.186;11.526;2022-08-19T03:11:16;3.30;;;3.00;;
34639;SDS011;22600;48.186;11.526;2022-08-19T03:13:53;3.90;;;2.80;;
34639;SDS011;22600;48.186;11.526;2022-08-19T03:16:20;3.33;;;3.03;;
34639;SDS011;22600;48.186;11.526;2022-08-19T03:18:48;3.90;;;3.20;;
34639;SDS011;22600;48.186;11.526;2022-08-19T03:21:18;3.10;;;2.75;;
34639;SDS011;22600;48.186;11.526;2022-08-19T03:23:45;3.10;;;2.70;;
34639;SDS011;22600;48.186;11.526;2022-08-19T03:26:11;3.40;;;3.00;;
34639;SDS011;22600;48.186;11.526;2022-08-19T03:28:36;3.30;;;3.00;;
34639;SDS011;22600;48.186;11.526;2022-08-19T03:31:04;2.97;;;2.67;;
34639;SDS011;22600;48.186;11.526;2022-08-19T03:33:32;3.50;;;3.00;;
34639;SDS011;22600;48.186;11.526;2022-08-19T03:36:18;4.90;;;3.08;;
34639;SDS011;22600;48.186;11.526;2022-08-19T03:38:48;3.50;;;3.05;;
34639;SDS011;22600;48.186;11.526;2022-08-19T03:41:17;3.72;;;2.72;;
34639;SDS011;22600;48.186;11.526;2022-08-19T03:43:46;3.40;;;2.93;;
34639;SDS011;22600;48.186;11.526;2022-08-19T03:46:13;3.67;;;3.03;;
34639;SDS011;22600;48.186;11.526;2022-08-19T03:51:15;3.60;;;2.85;;
34639;SDS011;22600;48.186;11.526;2022-08-19T03:53:46;3.65;;;3.00;;
34639;SDS011;22600;48.186;11.526;2022-08-19T03:56:12;3.30;;;3.00;;
34639;SDS011;22600;48.186;11.526;2022-08-19T03:58:39;3.63;;;2.90;;
34639;SDS011;22600;48.186;11.526;2022-08-19T04:01:10;4.47;;;2.92;;
34639;SDS011;22600;48.186;11.526;2022-08-19T04:03:37;3.05;;;2.70;;
34639;SDS011;22600;48.186;11.526;2022-08-19T04:06:17;3.40;;;2.63;;
34639;SDS011;22600;48.186;11.526;2022-08-19T04:08:51;3.30;;;3.00;;
34639;SDS011;22600;48.186;11.526;2022-08-19T04:11:22;3.22;;;2.92;;
34639;SDS011;22600;48.186;11.526;2022-08-19T04:13:51;3.67;;;2.83;;
34639;SDS011;22600;48.186;11.526;2022-08-19T04:16:18;3.25;;;2.88;;
34639;SDS011;22600;48.186;11.526;2022-08-19T04:18:45;3.58;;;3.00;;
34639;SDS011;22600;48.186;11.526;2022-08-19T04:21:15;3.15;;;2.78;;
34639;SDS011;22600;48.186;11.526;2022-08-19T04:23:45;3.80;;;3.17;;
34639;SDS011;22600;48.186;11.526;2022-08-19T04:26:14;3.20;;;2.80;;
34639;SDS011;22600;48.186;11.526;2022-08-19T04:28:42;3.03;;;2.72;;
34639;SDS011;22600;48.186;11.526;2022-08-19T04:31:12;3.60;;;3.13;;
34639;SDS011;22600;48.186;11.526;2022-08-19T04:33:39;3.83;;;2.95;;
34639;SDS011;22600;48.186;11.526;2022-08-19T04:36:05;3.78;;;3.15;;
34639;SDS011;22600;48.186;11.526;2022-08-19T04:38:30;3.58;;;3.20;;
34639;SDS011;22600;48.186;11.526;2022-08-19T04:40:56;4.07;;;3.20;;
34639;SDS011;22600;48.186;11.526;2022-08-19T04:43:40;4.07;;;3.08;;
34639;SDS011;22600;48.186;11.526;2022-08-19T04:46:09;3.67;;;3.17;;
34639;SDS011;22600;48.186;11.526;2022-08-19T04:48:36;3.20;;;2.90;;
34639;SDS011;22600;48.186;11.526;2022-08-19T04:51:05;3.92;;;2.90;;
34639;SDS011;22600;48.186;11.526;2022-08-19T04:53:34;4.07;;;3.30;;
34639;SDS011;22600;48.186;11.526;2022-08-19T04:56:04;3.75;;;3.35;;
34639;SDS011;22600;48.186;11.526;2022-08-19T04:58:35;3.78;;;3.28;;
34639;SDS011;22600;48.186;11.526;2022-08-19T05:01:02;5.00;;;3.55;;
34639;SDS011;22600;48.186;11.526;2022-08-19T05:03:29;4.13;;;3.58;;
34639;SDS011;22600;48.186;11.526;2022-08-19T05:05:58;4.85;;;3.42;;
34639;SDS011;22600;48.186;11.526;2022-08-19T05:08:32;4.60;;;3.38;;
34639;SDS011;22600;48.186;11.526;2022-08-19T05:10:59;4.00;;;3.10;;
34639;SDS011;22600;48.186;11.526;2022-08-19T05:13:25;4.20;;;3.20;;
34639;SDS011;22600;48.186;11.526;2022-08-19T05:15:55;4.00;;;3.40;;
34639;SDS011;22600;48.186;11.526;2022-08-19T05:18:22;3.90;;;3.50;;
34639;SDS011;22600;48.186;11.526;2022-08-19T05:21:12;4.03;;;3.00;;
34639;SDS011;22600;48.186;11.526;2022-08-19T05:23:58;3.60;;;3.13;;
34639;SDS011;22600;48.186;11.526;2022-08-19T05:26:24;4.65;;;3.25;;
34639;SDS011;22600;48.186;11.526;2022-08-19T05:28:53;4.60;;;3.60;;
34639;SDS011;22600;48.186;11.526;2022-08-19T05:31:20;3.75;;;3.10;;
34639;SDS011;22600;48.186;11.526;2022-08-19T05:33:46;3.63;;;3.22;;
34639;SDS011;22600;48.186;11.526;2022-08-19T05:36:12;3.63;;;3.30;;
34639;SDS011;22600;48.186;11.526;2022-08-19T05:38:38;4.03;;;3.63;;
34639;SDS011;22600;48.186;11.526;2022-08-19T05:41:11;4.60;;;3.80;;
34639;SDS011;22600;48.186;11.526;2022-08-19T05:43:41;7.95;;;5.20;;
34639;SDS011;22600;48.186;11.526;2022-08-19T05:46:06;4.93;;;3.95;;
34639;SDS011;22600;48.186;11.526;2022-08-19T05:48:33;5.25;;;3.78;;
34639;SDS011;22600;48.186;11.526;2022-08-19T05:51:04;8.85;;;5.63;;
34639;SDS011;22600;48.186;11.526;2022-08-19T05:53:33;5.78;;;4.28;;
34639;SDS011;22600;48.186;11.526;2022-08-19T05:56:07;5.47;;;3.72;;
34639;SDS011;22600;48.186;11.526;2022-08-19T05:58:36;5.82;;;4.13;;
34639;SDS011;22600;48.186;11.526;2022-08-19T06:01:03;4.43;;;4.00;;
34639;SDS011;22600;48.186;11.526;2022-08-19T06:03:49;4.40;;;3.50;;
34639;SDS011;22600;48.186;11.526;2022-08-19T06:06:15;4.47;;;3.70;;
34639;SDS011;22600;48.186;11.526;2022-08-19T06:08:42;4.18;;;3.75;;
34639;SDS011;22600;48.186;11.526;2022-08-19T06:11:13;4.30;;;3.90;;
34639;SDS011;22600;48.186;11.526;2022-08-19T06:13:48;4.32;;;3.55;;
34639;SDS011;22600;48.186;11.526;2022-08-19T06:16:18;4.60;;;3.30;;
34639;SDS011;22600;48.186;11.526;2022-08-19T06:18:53;4.70;;;3.55;;
34639;SDS011;22600;48.186;11.526;2022-08-19T06:21:20;4.03;;;3.47;;
34639;SDS011;22600;48.186;11.526;2022-08-19T06:23:48;3.75;;;3.25;;
34639;SDS011;22600;48.186;11.526;2022-08-19T06:26:16;4.10;;;3.63;;
34639;SDS011;22600;48.186;11.526;2022-08-19T06:28:43;3.97;;;3.35;;
34639;SDS011;22600;48.186;11.526;2022-08-19T06:31:11;3.85;;;3.40;;
34639;SDS011;22600;48.186;11.526;2022-08-19T06:33:39;4.75;;;3.60;;
34639;SDS011;22600;48.186;11.526;2022-08-19T06:36:06;7.18;;;3.72;;
34639;SDS011;22600;48.186;11.526;2022-08-19T06:38:32;4.38;;;3.42;;
34639;SDS011;22600;48.186;11.526;2022-08-19T06:41:02;3.95;;;3.15;;
34639;SDS011;22600;48.186;11.526;2022-08-19T06:43:28;3.72;;;3.20;;
34639;SDS011;22600;48.186;11.526;2022-08-19T06:45:54;4.53;;;3.72;;
34639;SDS011;22600;48.186;11.526;2022-08-19T06:48:19;3.92;;;3.53;;
34639;SDS011;22600;48.186;11.526;2022-08-19T06:50:45;5.03;;;3.70;;
34639;SDS011;22600;48.186;11.526;2022-08-19T06:53:10;4.43;;;3.75;;
34639;SDS011;22600;48.186;11.526;2022-08-19T06:55:36;4.47;;;3.83;;
34639;SDS011;22600;48.186;11.526;2022-08-19T06:58:03;5.45;;;4.60;;
34639;SDS011;22600;48.186;11.526;2022-08-19T07:00:29;4.95;;;4.07;;
34639;SDS011;22600;48.186;11.526;2022-08-19T07:02:55;5.38;;;4.20;;
34639;SDS011;22600;48.186;11.526;2022-08-19T07:05:20;5.00;;;4.22;;
34639;SDS011;22600;48.186;11.526;2022-08-19T07:07:46;3.97;;;3.58;;
34639;SDS011;22600;48.186;11.526;2022-08-19T07:10:12;5.00;;;4.15;;
34639;SDS011;22600;48.186;11.526;2022-08-19T07:12:37;3.83;;;3.33;;
34639;SDS011;22600;48.186;11.526;2022-08-19T07:15:04;5.18;;;4.10;;
34639;SDS011;22600;48.186;11.526;2022-08-19T07:17:31;4.93;;;3.72;;
34639;SDS011;22600;48.186;11.526;2022-08-19T07:19:56;4.43;;;3.78;;
34639;SDS011;22600;48.186;11.526;2022-08-19T07:22:23;4.78;;;4.10;;
34639;SDS011;22600;48.186;11.526;2022-08-19T07:24:49;5.15;;;3.83;;
34639;SDS011;22600;48.186;11.526;2022-08-19T07:27:14;5.20;;;4.22;;
34639;SDS011;22600;48.186;11.526;2022-08-19T07:29:40;5.32;;;4.28;;
34639;SDS011;22600;48.186;11.526;2022-08-19T07:32:06;4.60;;;3.78;;
34639;SDS011;22600;48.186;11.526;2022-08-19T07:34:34;4.75;;;4.25;;
34639;SDS011;22600;48.186;11.526;2022-08-19T07:37:03;4.65;;;4.13;;
34639;SDS011;22600;48.186;11.526;2022-08-19T07:39:31;6.13;;;4.70;;
34639;SDS011;22600;48.186;11.526;2022-08-19T07:41:59;5.20;;;4.43;;
34639;SDS011;22600;48.186;11.526;2022-08-19T07:44:26;6.05;;;5.05;;
34639;SDS011;22600;48.186;11.526;2022-08-19T07:46:53;6.00;;;4.40;;
34639;SDS011;22600;48.186;11.526;2022-08-19T07:49:20;6.38;;;4.97;;
34639;SDS011;22600;48.186;11.526;2022-08-19T07:51:47;5.10;;;4.45;;
34639;SDS011;22600;48.186;11.526;2022-08-19T07:54:19;5.90;;;4.63;;
34639;SDS011;22600;48.186;11.526;2022-08-19T07:56:46;7.00;;;4.72;;
34639;SDS011;22600;48.186;11.526;2022-08-19T07:59:12;6.35;;;4.65;;
34639;SDS011;22600;48.186;11.526;2022-08-19T08:01:38;6.00;;;4.93;;
34639;SDS011;22600;48.186;11.526;2022-08-19T08:04:04;5.07;;;4.40;;
34639;SDS011;22600;48.186;11.526;2022-08-19T08:06:49;5.85;;;4.97;;
34639;SDS011;22600;48.186;11.526;2022-08-19T08:09:35;6.80;;;5.70;;
34639;SDS011;22600;48.186;11.526;2022-08-19T08:12:04;6.03;;;5.07;;
34639;SDS011;22600;48.186;11.526;2022-08-19T08:17:09;5.90;;;5.03;;
34639;SDS011;22600;48.186;11.526;2022-08-19T08:19:35;6.93;;;5.18;;
34639;SDS011;22600;48.186;11.526;2022-08-19T08:22:01;6.05;;;5.35;;
34639;SDS011;22600;48.186;11.526;2022-08-19T08:24:30;6.28;;;5.00;;
34639;SDS011;22600;48.186;11.526;2022-08-19T08:26:57;5.90;;;5.30;;
34639;SDS011;22600;48.186;11.526;2022-08-19T08:29:25;5.38;;;4.45;;
34639;SDS011;22600;48.186;11.526;2022-08-19T08:31:52;7.38;;;5.38;;
34639;SDS011;22600;48.186;11.526;2022-08-19T08:34:18;6.97;;;5.32;;
34639;SDS011;22600;48.186;11.526;2022-08-19T08:36:45;6.45;;;5.40;;
34639;SDS011;22600;48.186;11.526;2022-08-19T08:39:11;6.80;;;5.32;;
34639;SDS011;22600;48.186;11.526;2022-08-19T08:41:59;6.38;;;5.22;;
34639;SDS011;22600;48.186;11.526;2022-08-19T08:47:01;8.10;;;6.47;;
34639;SDS011;22600;48.186;11.526;2022-08-19T08:52:13;10.60;;;7.18;;
34639;SDS011;22600;48.186;11.526;2022-08-19T08:54:45;16.60;;;9.57;;
34639;SDS011;22600;48.186;11.526;2022-08-19T08:57:21;10.02;;;7.63;;
34639;SDS011;22600;48.186;11.526;2022-08-19T09:00:09;24.13;;;10.80;;
34639;SDS011;22600;48.186;11.526;2022-08-19T09:02:39;11.57;;;8.60;;
34639;SDS011;22600;48.186;11.526;2022-08-19T09:05:04;13.85;;;9.15;;
34639;SDS011;22600;48.186;11.526;2022-08-19T09:07:39;12.50;;;8.68;;
34639;SDS011;22600;48.186;11.526;2022-08-19T09:10:35;10.07;;;7.95;;
34639;SDS011;22600;48.186;11.526;2022-08-19T09:15:38;7.97;;;6.70;;
34639;SDS011;22600;48.186;11.526;2022-08-19T09:18:09;7.38;;;6.43;;
34639;SDS011;22600;48.186;11.526;2022-08-19T09:20:35;7.95;;;6.50;;
34639;SDS011;22600;48.186;11.526;2022-08-19T09:23:01;8.65;;;6.75;;
34639;SDS011;22600;48.186;11.526;2022-08-19T09:25:26;8.35;;;6.75;;
34639;SDS011;22600;48.186;11.526;2022-08-19T09:27:53;9.35;;;7.40;;
34639;SDS011;22600;48.186;11.526;2022-08-19T09:30:25;9.88;;;8.43;;
34639;SDS011;22600;48.186;11.526;2022-08-19T09:32:53;10.77;;;8.30;;
34639;SDS011;22600;48.186;11.526;2022-08-19T09:35:20;9.52;;;7.95;;
34639;SDS011;22600;48.186;11.526;2022-08-19T09:37:48;10.07;;;7.75;;
34639;SDS011;22600;48.186;11.526;2022-08-19T09:40:14;8.45;;;6.80;;
34639;SDS011;22600;48.186;11.526;2022-08-19T09:42:41;8.60;;;6.97;;
34639;SDS011;22600;48.186;11.526;2022-08-19T09:45:08;8.18;;;6.78;;
34639;SDS011;22600;48.186;11.526;2022-08-19T09:47:35;9.65;;;8.00;;
34639;SDS011;22600;48.186;11.526;2022-08-19T09:50:03;8.90;;;7.75;;
34639;SDS011;22600;48.186;11.526;2022-08-19T09:52:33;11.25;;;8.93;;
34639;SDS011;22600;48.186;11.526;2022-08-19T09:55:04;11.18;;;8.55;;
34639;SDS011;22600;48.186;11.526;2022-08-19T09:57:30;10.55;;;8.52;;
34639;SDS011;22600;48.186;11.526;2022-08-19T09:59:56;9.63;;;7.80;;
34639;SDS011;22600;48.186;11.526;2022-08-19T10:02:22;9.52;;;7.53;;
34639;SDS011;22600;48.186;11.526;2022-08-19T10:04:47;8.85;;;7.30;;
34639;SDS011;22600;48.186;11.526;2022-08-19T10:07:32;10.23;;;7.80;;
34639;SDS011;22600;48.186;11.526;2022-08-19T10:09:57;9.30;;;7.28;;
34639;SDS011;22600;48.186;11.526;2022-08-19T10:12:23;9.73;;;7.68;;
34639;SDS011;22600;48.186;11.526;2022-08-19T10:14:48;8.88;;;7.32;;
34639;SDS011;22600;48.186;11.526;2022-08-19T10:17:16;11.00;;;8.18;;
34639;SDS011;22600;48.186;11.526;2022-08-19T10:19:42;10.95;;;8.82;;
34639;SDS011;22600;48.186;11.526;2022-08-19T10:22:08;9.55;;;7.88;;
34639;SDS011;22600;48.186;11.526;2022-08-19T10:24:33;10.52;;;8.00;;
34639;SDS011;22600;48.186;11.526;2022-08-19T10:27:00;11.30;;;8.55;;
34639;SDS011;22600;48.186;11.526;2022-08-19T10:29:28;10.30;;;8.73;;
34639;SDS011;22600;48.186;11.526;2022-08-19T10:31:54;10.55;;;8.73;;
34639;SDS011;22600;48.186;11.526;2022-08-19T10:34:21;10.20;;;8.50;;
34639;SDS011;22600;48.186;11.526;2022-08-19T10:36:47;10.13;;;8.15;;
34639;SDS011;22600;48.186;11.526;2022-08-19T10:39:13;11.10;;;8.57;;
34639;SDS011;22600;48.186;11.526;2022-08-19T10:41:39;11.57;;;8.98;;
34639;SDS011;22600;48.186;11.526;2022-08-19T10:44:06;10.15;;;8.50;;
34639;SDS011;22600;48.186;11.526;2022-08-19T10:46:35;9.85;;;8.00;;
34639;SDS011;22600;48.186;11.526;2022-08-19T10:49:06;13.68;;;9.68;;
34639;SDS011;22600;48.186;11.526;2022-08-19T10:51:33;11.82;;;9.07;;
34639;SDS011;22600;48.186;11.526;2022-08-19T10:54:17;13.43;;;9.68;;
34639;SDS011;22600;48.186;11.526;2022-08-19T10:56:43;11.90;;;9.10;;
34639;SDS011;22600;48.186;11.526;2022-08-19T11:01:46;9.75;;;8.05;;
34639;SDS011;22600;48.186;11.526;2022-08-19T11:04:13;11.32;;;8.82;;
34639;SDS011;22600;48.186;11.526;2022-08-19T11:06:42;10.50;;;8.48;;
34639;SDS011;22600;48.186;11.526;2022-08-19T11:09:10;12.60;;;9.18;;
34639;SDS011;22600;48.186;11.526;2022-08-19T11:11:36;10.98;;;8.70;;
34639;SDS011;22600;48.186;11.526;2022-08-19T11:14:09;9.43;;;7.65;;
34639;SDS011;22600;48.186;11.526;2022-08-19T11:16:36;10.20;;;8.40;;
34639;SDS011;22600;48.186;11.526;2022-08-19T11:19:04;10.73;;;8.38;;
34639;SDS011;22600;48.186;11.526;2022-08-19T11:21:31;10.73;;;7.95;;
34639;SDS011;22600;48.186;11.526;2022-08-19T11:24:00;38.20;;;14.25;;
34639;SDS011;22600;48.186;11.526;2022-08-19T11:26:31;13.38;;;9.23;;
34639;SDS011;22600;48.186;11.526;2022-08-19T11:28:58;13.35;;;8.90;;
34639;SDS011;22600;48.186;11.526;2022-08-19T11:31:29;43.03;;;13.60;;
34639;SDS011;22600;48.186;11.526;2022-08-19T11:33:58;19.60;;;10.27;;
34639;SDS011;22600;48.186;11.526;2022-08-19T11:36:26;18.30;;;9.23;;
34639;SDS011;22600;48.186;11.526;2022-08-19T11:38:52;29.50;;;11.90;;
34639;SDS011;22600;48.186;11.526;2022-08-19T11:41:19;20.25;;;10.48;;
34639;SDS011;22600;48.186;11.526;2022-08-19T11:43:48;12.73;;;9.02;;
34639;SDS011;22600;48.186;11.526;2022-08-19T11:46:14;12.88;;;8.98;;
34639;SDS011;22600;48.186;11.526;2022-08-19T11:48:41;13.45;;;8.90;;
34639;SDS011;22600;48.186;11.526;2022-08-19T11:51:08;10.77;;;8.23;;
34639;SDS011;22600;48.186;11.526;2022-08-19T11:53:37;12.35;;;9.10;;
34639;SDS011;22600;48.186;11.526;2022-08-19T11:56:04;11.07;;;8.30;;
34639;SDS011;22600;48.186;11.526;2022-08-19T11:58:30;11.50;;;8.45;;
34639;SDS011;22600;48.186;11.526;2022-08-19T12:00:56;10.40;;;8.20;;
34639;SDS011;22600;48.186;11.526;2022-08-19T12:03:22;9.88;;;7.50;;
34639;SDS011;22600;48.186;11.526;2022-08-19T12:05:48;10.80;;;8.15;;
34639;SDS011;22600;48.186;11.526;2022-08-19T12:08:15;9.80;;;7.47;;
34639;SDS011;22600;48.186;11.526;2022-08-19T12:10:41;8.77;;;6.82;;
34639;SDS011;22600;48.186;11.526;2022-08-19T12:13:07;10.10;;;7.45;;
34639;SDS011;22600;48.186;11.526;2022-08-19T12:15:37;9.18;;;7.15;;
34639;SDS011;22600;48.186;11.526;2022-08-19T12:18:08;9.75;;;7.35;;
34639;SDS011;22600;48.186;11.526;2022-08-19T12:20:35;11.90;;;7.00;;
34639;SDS011;22600;48.186;11.526;2022-08-19T12:23:02;9.13;;;6.63;;
34639;SDS011;22600;48.186;11.526;2022-08-19T12:25:29;8.98;;;7.00;;
34639;SDS011;22600;48.186;11.526;2022-08-19T12:27:56;12.82;;;7.35;;
34639;SDS011;22600;48.186;11.526;2022-08-19T12:30:22;11.55;;;7.35;;
34639;SDS011;22600;48.186;11.526;2022-08-19T12:32:48;13.65;;;7.78;;
34639;SDS011;22600;48.186;11.526;2022-08-19T12:35:13;10.68;;;7.10;;
34639;SDS011;22600;48.186;11.526;2022-08-19T12:37:39;10.63;;;7.63;;
34639;SDS011;22600;48.186;11.526;2022-08-19T12:40:07;13.43;;;7.80;;
34639;SDS011;22600;48.186;11.526;2022-08-19T12:42:33;12.90;;;7.32;;
34639;SDS011;22600;48.186;11.526;2022-08-19T12:44:59;22.95;;;9.65;;
34639;SDS011;22600;48.186;11.526;2022-08-19T12:47:25;25.85;;;10.75;;
34639;SDS011;22600;48.186;11.526;2022-08-19T12:49:51;15.98;;;7.72;;
34639;SDS011;22600;48.186;11.526;2022-08-19T12:52:17;21.15;;;9.57;;
34639;SDS011;22600;48.186;11.526;2022-08-19T12:54:45;18.17;;;10.05;;
34639;SDS011;22600;48.186;11.526;2022-08-19T12:57:12;32.00;;;15.73;;
34639;SDS011;22600;48.186;11.526;2022-08-19T12:59:37;13.57;;;8.70;;
34639;SDS011;22600;48.186;11.526;2022-08-19T13:02:04;16.30;;;8.07;;
34639;SDS011;22600;48.186;11.526;2022-08-19T13:04:31;13.95;;;7.97;;
34639;SDS011;22600;48.186;11.526;2022-08-19T13:07:00;13.75;;;7.82;;
34639;SDS011;22600;48.186;11.526;2022-08-19T13:09:25;14.40;;;8.07;;
34639;SDS011;22600;48.186;11.526;2022-08-19T13:11:51;13.38;;;7.28;;
34639;SDS011;22600;48.186;11.526;2022-08-19T13:14:17;10.43;;;7.50;;
34639;SDS011;22600;48.186;11.526;2022-08-19T13:16:43;11.30;;;7.65;;
34639;SDS011;22600;48.186;11.526;2022-08-19T13:19:09;12.20;;;7.65;;
34639;SDS011;22600;48.186;11.526;2022-08-19T13:21:35;11.40;;;7.32;;
34639;SDS011;22600;48.186;11.526;2022-08-19T13:24:01;11.20;;;6.60;;
34639;SDS011;22600;48.186;11.526;2022-08-19T13:26:27;11.40;;;7.18;;
34639;SDS011;22600;48.186;11.526;2022-08-19T13:28:52;10.00;;;7.05;;
34639;SDS011;22600;48.186;11.526;2022-08-19T13:31:38;11.05;;;7.18;;
34639;SDS011;22600;48.186;11.526;2022-08-19T13:34:31;10.85;;;6.55;;
34639;SDS011;22600;48.186;11.526;2022-08-19T13:37:00;9.90;;;6.57;;
34639;SDS011;22600;48.186;11.526;2022-08-19T13:39:28;11.02;;;7.07;;
34639;SDS011;22600;48.186;11.526;2022-08-19T13:41:54;11.43;;;7.00;;
34639;SDS011;22600;48.186;11.526;2022-08-19T13:44:20;10.80;;;6.82;;
34639;SDS011;22600;48.186;11.526;2022-08-19T13:46:46;12.18;;;7.30;;
34639;SDS011;22600;48.186;11.526;2022-08-19T13:49:13;10.90;;;7.10;;
34639;SDS011;22600;48.186;11.526;2022-08-19T13:51:39;9.18;;;6.57;;
34639;SDS011;22600;48.186;11.526;2022-08-19T13:54:06;10.43;;;6.57;;
34639;SDS011;22600;48.186;11.526;2022-08-19T13:56:33;11.75;;;7.00;;
34639;SDS011;22600;48.186;11.526;2022-08-19T13:58:59;8.07;;;6.00;;
34639;SDS011;22600;48.186;11.526;2022-08-19T14:01:25;9.00;;;5.95;;
34639;SDS011;22600;48.186;11.526;2022-08-19T14:03:51;9.50;;;6.40;;
34639;SDS011;22600;48.186;11.526;2022-08-19T14:06:17;11.38;;;6.00;;
34639;SDS011;22600;48.186;11.526;2022-08-19T14:08:43;8.82;;;6.05;;
34639;SDS011;22600;48.186;11.526;2022-08-19T14:11:09;9.35;;;5.72;;
34639;SDS011;22600;48.186;11.526;2022-08-19T14:13:35;10.63;;;6.22;;
34639;SDS011;22600;48.186;11.526;2022-08-19T14:16:05;7.80;;;5.57;;
34639;SDS011;22600;48.186;11.526;2022-08-19T14:18:35;12.88;;;6.75;;
34639;SDS011;22600;48.186;11.526;2022-08-19T14:21:01;12.75;;;7.75;;
34639;SDS011;22600;48.186;11.526;2022-08-19T14:23:27;8.80;;;6.63;;
34639;SDS011;22600;48.186;11.526;2022-08-19T14:25:53;11.45;;;6.05;;
34639;SDS011;22600;48.186;11.526;2022-08-19T14:28:32;8.73;;;5.75;;
34639;SDS011;22600;48.186;11.526;2022-08-19T14:30:58;8.35;;;5.82;;
34639;SDS011;22600;48.186;11.526;2022-08-19T14:33:23;7.45;;;6.03;;
34639;SDS011;22600;48.186;11.526;2022-08-19T14:35:49;9.93;;;6.18;;
34639;SDS011;22600;48.186;11.526;2022-08-19T14:38:15;8.18;;;6.20;;
34639;SDS011;22600;48.186;11.526;2022-08-19T14:40:43;8.20;;;6.20;;
34639;SDS011;22600;48.186;11.526;2022-08-19T14:43:08;7.53;;;6.10;;
34639;SDS011;22600;48.186;11.526;2022-08-19T14:45:35;7.75;;;5.75;;
34639;SDS011;22600;48.186;11.526;2022-08-19T14:48:02;9.13;;;6.00;;
34639;SDS011;22600;48.186;11.526;2022-08-19T14:50:29;7.43;;;5.85;;
34639;SDS011;22600;48.186;11.526;2022-08-19T14:53:01;6.85;;;5.32;;